Abbeville, Louisiana
Current Conditions -  °F | °C
As of 3:10 PM on Saturday 25 Oct 2014 (Local Time) from KIYA Reporting Station
Clear Clear  
Wind Chill: 82°   Ceiling: Unl
Heat Index: 82°   Visibility: 10mi
Dew Point: 47°   Wind: 0mph
Humidity: 30%   Direction: NA
Pressure: 30.1"   Gusts: NA
Location:  29.97°N, 92.13°W
Report Text: KIYA 252010Z AUTO 00000KT 10SM CLR 28/09 A3010 RMK AO2 T02750085
Loading
Personal Weather Stations






























Interactive Weather Map
Tropical Storm Tracking
New forecast layout! Learn more

10-Day Weather Forecast

Advertisements
Track Severe Weather on mobile